createdAt,value
2023-04-10T00:06:32.854Z,102137.50
2023-04-10T00:13:34.404Z,102138.03
2023-04-10T00:20:36.192Z,102125.59
2023-04-10T00:27:37.741Z,102127.41
2023-04-10T00:34:39.298Z,102114.59
2023-04-10T00:41:40.872Z,102119.00
2023-04-10T00:48:42.430Z,102112.91
2023-04-10T00:55:44.416Z,102097.19
2023-04-10T01:02:46.236Z,102086.69
2023-04-10T01:10:04.865Z,102100.44
2023-04-10T01:17:22.877Z,102103.97
2023-04-10T01:24:46.075Z,102099.50
2023-04-10T01:31:53.429Z,102103.13
2023-04-10T01:38:55.181Z,102094.78
2023-04-10T01:45:57.392Z,102094.00
2023-04-10T01:52:59.213Z,102095.34
2023-04-10T02:00:03.988Z,102090.81
2023-04-10T02:07:25.480Z,102101.66
2023-04-10T02:14:29.160Z,102084.78
2023-04-10T02:21:31.115Z,102093.41
2023-04-10T02:28:32.702Z,102090.88
2023-04-10T02:35:34.357Z,102094.66
2023-04-10T02:42:37.957Z,102105.63
2023-04-10T02:49:39.649Z,102096.78
2023-04-10T02:56:47.776Z,102104.34
2023-04-10T03:03:49.570Z,102102.81
2023-04-10T03:10:59.774Z,102107.53
2023-04-10T03:18:01.344Z,102108.03
2023-04-10T03:25:03.271Z,102106.81
2023-04-10T03:32:06.023Z,102102.50
2023-04-10T03:39:08.736Z,102102.72
2023-04-10T03:46:10.564Z,102098.56
2023-04-10T03:53:17.314Z,102103.31
2023-04-10T04:00:20.346Z,102101.69
2023-04-10T04:07:21.849Z,102101.16
2023-04-10T04:14:37.452Z,102106.72
2023-04-10T04:22:00.302Z,102098.75
2023-04-10T04:29:20.271Z,102110.47
2023-04-10T04:36:34.541Z,102104.84
2023-04-10T04:44:02.479Z,102108.28
2023-04-10T04:51:22.792Z,102110.06
2023-04-10T04:58:47.280Z,102117.28
2023-04-10T05:06:01.658Z,102106.59
2023-04-10T05:13:21.883Z,102112.69
2023-04-10T05:20:43.360Z,102114.47
2023-04-10T05:28:05.481Z,102109.00
2023-04-10T05:35:27.477Z,102113.34
2023-04-10T05:42:47.706Z,102126.09
2023-04-10T05:50:05.362Z,102109.63
2023-04-10T05:57:25.484Z,102108.47
2023-04-10T06:04:46.613Z,102106.38
2023-04-10T06:11:49.172Z,102109.09
2023-04-10T06:18:57.943Z,102106.13
2023-04-10T06:26:00.375Z,102103.91
2023-04-10T06:33:02.228Z,102102.91
2023-04-10T06:40:10.073Z,102096.97
2023-04-10T06:47:13.222Z,102105.09
2023-04-10T06:54:14.909Z,102088.66
2023-04-10T07:01:17.688Z,102091.53
2023-04-10T07:08:19.404Z,102087.09
2023-04-10T07:15:20.967Z,102077.75
2023-04-10T07:22:22.499Z,102074.84
2023-04-10T07:29:24.153Z,102078.94
2023-04-10T07:36:26.978Z,102074.59
2023-04-10T07:43:28.543Z,102063.38
2023-04-10T07:50:30.526Z,102060.88
2023-04-10T07:57:32.302Z,102063.03
2023-04-10T08:04:34.285Z,102054.56
2023-04-10T08:11:38.126Z,102041.06
2023-04-10T08:18:40.328Z,102034.91
2023-04-10T08:25:41.984Z,102027.03
2023-04-10T08:32:43.565Z,102031.91
2023-04-10T08:39:45.188Z,102024.53
2023-04-10T08:46:46.758Z,102017.13
2023-04-10T08:53:51.367Z,102013.53
2023-04-10T09:00:52.920Z,102003.34
2023-04-10T09:07:54.565Z,101998.22
2023-04-10T09:14:56.704Z,101980.00
2023-04-10T09:21:58.240Z,101964.31
2023-04-10T09:29:06.557Z,101950.63
2023-04-10T09:36:12.806Z,101942.44
2023-04-10T09:43:32.363Z,101931.88
2023-04-10T09:50:39.999Z,101918.34
2023-04-10T09:57:42.047Z,101914.84
2023-04-10T10:04:43.774Z,101911.63
2023-04-10T10:11:45.387Z,101890.88
2023-04-10T10:19:08.445Z,101881.34
2023-04-10T10:26:10.006Z,101873.09
2023-04-10T10:33:11.557Z,101867.47
2023-04-10T10:40:19.892Z,101857.06
2023-04-10T10:47:27.333Z,101830.09
2023-04-10T10:54:30.119Z,101830.28
2023-04-10T11:01:31.878Z,101823.16
2023-04-10T11:08:33.661Z,101822.09
2023-04-10T11:15:35.248Z,101811.50
2023-04-10T11:23:11.605Z,101798.69
2023-04-10T11:30:26.149Z,101796.91
2023-04-10T11:37:29.388Z,101773.84
2023-04-10T11:44:32.540Z,101757.81
2023-04-10T11:51:34.137Z,101759.56
2023-04-10T11:58:35.653Z,101751.56
2023-04-10T12:05:49.184Z,101735.72
2023-04-10T12:12:51.260Z,101720.63
2023-04-10T12:19:52.792Z,101707.94
2023-04-10T12:26:54.338Z,101689.94
2023-04-10T12:33:58.948Z,101689.16
2023-04-10T12:41:01.590Z,101680.44
2023-04-10T12:48:03.202Z,101655.19
2023-04-10T12:55:18.741Z,101656.75
2023-04-10T13:02:21.246Z,101631.97
2023-04-10T13:09:22.909Z,101628.41
2023-04-10T13:16:24.556Z,101612.66
2023-04-10T13:23:26.168Z,101591.88
2023-04-10T13:30:28.496Z,101572.47
2023-04-10T13:37:30.196Z,101556.59
2023-04-10T13:44:32.225Z,101538.63
2023-04-10T13:51:33.804Z,101538.25
2023-04-10T13:58:35.676Z,101524.72
2023-04-10T14:05:37.223Z,101520.47
2023-04-10T14:12:38.847Z,101505.53
2023-04-10T14:19:41.510Z,101494.34
2023-04-10T14:26:43.019Z,101489.75
2023-04-10T14:33:44.557Z,101487.44
2023-04-10T14:40:49.685Z,101485.34
2023-04-10T14:47:51.863Z,101470.16
2023-04-10T14:54:53.501Z,101452.13
2023-04-10T15:01:55.137Z,101448.22
2023-04-10T15:08:56.751Z,101429.16
2023-04-10T15:15:59.718Z,101426.66
2023-04-10T15:23:02.251Z,101403.28
2023-04-10T15:30:04.636Z,101400.97
2023-04-10T15:37:06.220Z,101392.63
2023-04-10T15:44:07.792Z,101384.22
2023-04-10T15:51:09.383Z,101365.66
2023-04-10T15:58:11.073Z,101345.84
2023-04-10T16:05:12.613Z,101345.53
2023-04-10T16:12:14.124Z,101317.97
2023-04-10T16:19:15.696Z,101308.97
2023-04-10T16:26:18.485Z,101293.69
2023-04-10T16:33:20.025Z,101289.78
2023-04-10T16:40:21.718Z,101279.25
2023-04-10T16:47:23.311Z,101273.78
2023-04-10T16:54:25.031Z,101264.88
2023-04-10T17:01:27.107Z,101251.31
2023-04-10T17:08:28.700Z,101248.09
2023-04-10T17:15:30.323Z,101228.91
2023-04-10T17:22:31.885Z,101223.22
2023-04-10T17:29:38.080Z,101210.09
2023-04-10T17:36:39.635Z,101199.81
2023-04-10T17:43:41.250Z,101182.91
2023-04-10T17:50:42.799Z,101181.91
2023-04-10T17:57:44.365Z,101175.53
2023-04-10T18:04:45.877Z,101162.97
2023-04-10T18:11:48.364Z,101151.06
2023-04-10T18:18:49.949Z,101158.66
2023-04-10T18:25:54.933Z,101148.88
2023-04-10T18:32:56.777Z,101146.38
2023-04-10T18:40:03.431Z,101145.84
2023-04-10T18:47:08.207Z,101141.53
2023-04-10T18:54:09.805Z,101140.34
2023-04-10T19:01:12.310Z,101132.78
2023-04-10T19:08:14.612Z,101119.47
2023-04-10T19:15:16.339Z,101105.63
2023-04-10T19:22:17.975Z,101098.75
2023-04-10T19:29:19.502Z,101092.53
2023-04-10T19:36:21.174Z,101081.34
2023-04-10T19:43:22.807Z,101062.13
2023-04-10T19:50:24.415Z,101057.16
2023-04-10T19:57:26.002Z,101057.16
2023-04-10T20:04:27.744Z,101042.78
2023-04-10T20:11:30.605Z,101025.75
2023-04-10T20:18:32.374Z,101005.31
2023-04-10T20:25:34.956Z,100992.59
2023-04-10T20:32:36.754Z,100983.34
2023-04-10T20:39:38.564Z,100980.91
2023-04-10T20:46:40.529Z,100959.75
2023-04-10T20:53:42.238Z,100958.41
2023-04-10T21:00:43.840Z,100952.09
2023-04-10T21:07:45.906Z,100962.50
2023-04-10T21:14:48.107Z,100957.69
2023-04-10T21:21:49.700Z,100941.03
2023-04-10T21:28:51.286Z,100945.75
2023-04-10T21:35:52.888Z,100931.97
2023-04-10T21:42:56.029Z,100927.78
2023-04-10T21:49:58.147Z,100920.66
2023-04-10T21:56:59.682Z,100913.22
2023-04-10T22:04:01.333Z,100890.22
2023-04-10T22:11:02.933Z,100886.19
2023-04-10T22:18:04.633Z,100865.84
2023-04-10T22:25:06.390Z,100866.19
2023-04-10T22:32:08.510Z,100835.97
2023-04-10T22:39:10.243Z,100820.34
2023-04-10T22:46:11.892Z,100809.38
2023-04-10T22:53:13.498Z,100809.41
2023-04-10T23:00:15.683Z,100806.53
2023-04-10T23:07:17.252Z,100800.38
2023-04-10T23:14:18.787Z,100797.03
2023-04-10T23:21:20.732Z,100769.94
2023-04-10T23:28:22.436Z,100757.78
2023-04-10T23:35:24.102Z,100743.88
2023-04-10T23:42:25.771Z,100720.78
2023-04-10T23:49:27.370Z,100704.13
2023-04-10T23:56:29.368Z,100700.78
